Time;durP1;ratioP1;P1;durP2;ratioP2;P2;SDS_P1;SDS_P2;PMS_P1;PMS_P2;Temp;Humidity;BMP_temperature;BMP_pressure;BME280_temperature;BME280_humidity;BME280_pressure;Samples;Min_cycle;Max_cycle;Signal;HPM_P1;HPM_P2
2021/09/25 00:01:37;;;;;;;20.95;15.93;;;;;;;16.64;96.66;100563.97;5032977;28;20514;-79
2021/09/25 00:04:04;;;;;;;32.83;16.40;;;;;;;16.69;96.02;100568.88;5063649;28;20060;-79
2021/09/25 00:06:32;;;;;;;23.38;15.82;;;;;;;16.72;95.93;100563.34;5057674;28;20323;-79
2021/09/25 00:08:59;;;;;;;16.80;13.73;;;;;;;16.75;95.51;100557.78;5065951;28;20067;-79
2021/09/25 00:11:28;;;;;;;16.58;14.52;;;;;;;16.80;94.91;100563.53;5063908;28;20472;-79
2021/09/25 00:13:56;;;;;;;20.00;15.07;;;;;;;16.68;95.98;100564.56;5049671;28;20103;-77
2021/09/25 00:16:27;;;;;;;24.65;14.85;;;;;;;16.77;95.37;100557.63;5067780;28;20135;-79
2021/09/25 00:18:55;;;;;;;18.98;14.07;;;;;;;16.82;94.91;100558.09;5051550;28;20070;-78
2021/09/25 00:21:24;;;;;;;18.67;14.40;;;;;;;16.78;95.07;100561.97;5041845;28;20044;-79
2021/09/25 00:23:51;;;;;;;19.98;13.98;;;;;;;16.68;95.36;100557.41;5064123;28;20162;-78
2021/09/25 00:26:18;;;;;;;16.48;14.10;;;;;;;16.75;94.98;100562.22;5053576;28;20076;-78
2021/09/25 00:28:46;;;;;;;18.25;14.27;;;;;;;16.74;94.57;100556.06;5066018;28;20155;-77
2021/09/25 00:31:13;;;;;;;21.38;13.70;;;;;;;16.72;94.75;100555.38;5052375;28;20045;-79
2021/09/25 00:33:40;;;;;;;18.63;14.48;;;;;;;16.71;94.71;100553.66;5064309;28;20143;-79
2021/09/25 00:36:07;;;;;;;15.88;12.50;;;;;;;16.83;94.42;100557.09;5065814;28;20057;-78
2021/09/25 00:38:36;;;;;;;16.83;13.32;;;;;;;16.76;94.86;100558.63;5053438;28;20833;-79
2021/09/25 00:41:05;;;;;;;16.55;12.73;;;;;;;16.75;94.37;100554.25;5063932;28;20147;-78
2021/09/25 00:43:33;;;;;;;18.25;13.93;;;;;;;16.80;93.89;100552.06;5054193;28;20132;-79
2021/09/25 00:46:01;;;;;;;14.68;12.95;;;;;;;16.76;94.38;100556.81;5047259;28;20411;-78
2021/09/25 00:48:28;;;;;;;15.85;12.65;;;;;;;16.75;94.28;100556.91;5067424;28;20052;-78
2021/09/25 00:50:55;;;;;;;15.65;13.15;;;;;;;16.81;93.88;100553.75;5062015;28;20127;-77
2021/09/25 00:53:22;;;;;;;20.98;13.73;;;;;;;16.64;94.63;100560.47;5068422;28;20048;-79
2021/09/25 00:55:50;;;;;;;19.00;13.13;;;;;;;16.54;95.75;100560.41;5061188;28;20168;-78
2021/09/25 00:58:17;;;;;;;19.02;13.32;;;;;;;16.71;94.64;100562.47;5063204;28;20412;-79
2021/09/25 01:00:45;;;;;;;18.42;12.63;;;;;;;16.75;93.95;100556.91;5039019;28;20531;-79
2021/09/25 01:03:12;;;;;;;17.42;12.85;;;;;;;16.83;93.55;100557.94;5062416;28;20052;-78
2021/09/25 01:05:44;;;;;;;17.25;12.70;;;;;;;16.81;93.43;100561.72;5032909;28;20098;-78
2021/09/25 01:08:12;;;;;;;18.05;13.25;;;;;;;16.84;93.55;100561.44;5067369;28;20113;-79
2021/09/25 01:10:40;;;;;;;20.67;13.18;;;;;;;16.87;93.07;100563.84;5062954;28;20348;-79
2021/09/25 01:13:08;;;;;;;20.95;14.23;;;;;;;16.82;93.21;100563.41;5065789;28;20486;-78
2021/09/25 01:15:35;;;;;;;18.95;13.05;;;;;;;16.78;93.48;100572.63;5028855;28;20570;-77
2021/09/25 01:18:02;;;;;;;18.75;13.75;;;;;;;16.84;93.14;100566.75;5068999;28;20084;-79
2021/09/25 01:20:29;;;;;;;16.10;13.25;;;;;;;16.81;93.53;100561.72;5036714;28;20118;-79
2021/09/25 01:22:56;;;;;;;19.98;13.77;;;;;;;16.83;93.09;100563.25;5071052;28;20561;-79
2021/09/25 01:25:24;;;;;;;17.23;12.52;;;;;;;16.86;93.03;100565.66;5055066;28;20076;-77
2021/09/25 01:27:52;;;;;;;20.60;13.95;;;;;;;16.84;92.88;100561.44;5044401;28;20499;-77
2021/09/25 01:30:19;;;;;;;15.70;13.15;;;;;;;16.87;92.95;100566.50;5055239;28;20518;-78
2021/09/25 01:32:48;;;;;;;18.23;12.52;;;;;;;16.91;92.61;100568.75;5047075;28;20048;-80
2021/09/25 01:35:18;;;;;;;18.20;13.65;;;;;;;16.80;93.43;100568.03;5056605;28;20140;-77
2021/09/25 01:37:48;;;;;;;19.50;13.30;;;;;;;16.73;93.87;100566.84;5045159;28;20078;-79
2021/09/25 01:40:17;;;;;;;18.05;13.52;;;;;;;16.73;93.88;100569.50;5066876;28;20094;-78
2021/09/25 01:42:44;;;;;;;15.95;13.55;;;;;;;16.78;93.28;100572.63;5059207;28;20535;-77
2021/09/25 01:45:13;;;;;;;14.25;12.75;;;;;;;16.84;92.83;100561.44;5055521;28;20143;-78
2021/09/25 01:47:41;;;;;;;21.48;13.30;;;;;;;16.92;92.34;100565.13;5053140;28;20052;-77
2021/09/25 01:50:10;;;;;;;15.23;12.43;;;;;;;16.87;92.62;100556.69;5062835;28;20044;-79
2021/09/25 01:52:37;;;;;;;17.00;13.52;;;;;;;16.81;93.33;100557.25;5042453;28;20052;-80
2021/09/25 01:55:05;;;;;;;19.38;14.20;;;;;;;16.75;93.56;100563.09;5060321;28;20051;-78
2021/09/25 01:57:32;;;;;;;19.13;14.27;;;;;;;16.80;93.68;100560.03;5069936;28;20088;-77
2021/09/25 01:59:59;;;;;;;14.60;11.95;;;;;;;16.70;94.11;100560.78;5041770;28;20052;-78
2021/09/25 02:02:26;;;;;;;18.17;12.88;;;;;;;16.69;94.58;100564.41;5038331;28;20045;-78
2021/09/25 02:04:54;;;;;;;17.85;13.00;;;;;;;16.71;94.24;100569.63;5055995;28;20496;-80
2021/09/25 02:07:21;;;;;;;18.05;13.85;;;;;;;16.74;94.50;100572.03;5034541;28;20163;-78
2021/09/25 02:09:49;;;;;;;17.42;13.98;;;;;;;16.66;94.99;100571.78;5064125;28;20140;-79
2021/09/25 02:12:17;;;;;;;17.95;12.60;;;;;;;16.74;94.09;100561.38;5057086;28;20570;-78
2021/09/25 02:14:44;;;;;;;19.27;13.30;;;;;;;16.73;94.79;100569.50;5042812;28;20059;-78
2021/09/25 02:17:11;;;;;;;15.77;12.15;;;;;;;16.72;94.45;100568.66;5061123;28;20459;-77
2021/09/25 02:19:38;;;;;;;24.17;13.85;;;;;;;16.68;94.22;100557.41;5042693;28;20118;-77
2021/09/25 02:22:06;;;;;;;23.20;14.35;;;;;;;16.81;93.66;100557.25;5065528;28;20582;-79
2021/09/25 02:24:33;;;;;;;21.10;14.55;;;;;;;16.73;94.30;100570.34;5054351;28;20147;-77
2021/09/25 02:27:02;;;;;;;17.88;12.98;;;;;;;16.84;93.67;100561.44;5047135;28;20543;-79
2021/09/25 02:29:29;;;;;;;15.13;12.35;;;;;;;16.79;94.02;100567.16;5053895;28;20342;-78
2021/09/25 02:31:57;;;;;;;21.33;13.45;;;;;;;16.73;94.17;100559.72;5068713;28;20104;-78
2021/09/25 02:34:24;;;;;;;17.35;14.02;;;;;;;16.88;93.26;100568.19;5056358;28;20143;-79
2021/09/25 02:36:51;;;;;;;15.18;12.45;;;;;;;16.86;93.84;100564.81;5027654;28;20079;-79
2021/09/25 02:39:18;;;;;;;16.63;11.35;;;;;;;16.89;93.18;100569.88;5057410;28;20449;-78
2021/09/25 02:41:46;;;;;;;22.90;12.18;;;;;;;16.86;93.52;100570.97;5032459;28;20107;-79
2021/09/25 02:44:13;;;;;;;21.63;12.95;;;;;;;16.78;93.92;100567.28;5039021;28;20140;-79
2021/09/25 02:46:40;;;;;;;17.33;12.75;;;;;;;16.74;94.10;100572.03;5069199;28;20120;-78
2021/09/25 02:49:07;;;;;;;16.27;12.80;;;;;;;16.85;93.20;100574.63;5038061;28;20064;-79
2021/09/25 02:51:35;;;;;;;16.58;12.45;;;;;;;16.80;93.48;100568.03;5062502;28;20060;-79
2021/09/25 02:54:02;;;;;;;18.75;12.55;;;;;;;16.74;94.03;100584.47;5063207;28;20048;-80
2021/09/25 02:56:29;;;;;;;13.95;12.55;;;;;;;16.83;93.60;100570.41;5060199;28;20045;-77
2021/09/25 02:58:57;;;;;;;18.92;13.27;;;;;;;16.82;93.87;100580.19;5066518;28;20044;-78
2021/09/25 03:01:39;;;;;;;18.95;13.77;;;;;;;16.78;93.68;100581.44;5061710;28;20059;-78
2021/09/25 03:04:07;;;;;;;18.25;13.52;;;;;;;16.80;93.85;100579.50;5048201;28;20135;-79
2021/09/25 03:06:34;;;;;;;24.23;13.68;;;;;;;16.66;94.56;100583.31;5060621;28;20473;-78
2021/09/25 03:09:02;;;;;;;16.38;13.32;;;;;;;16.58;95.17;100591.06;5064690;28;20066;-80
2021/09/25 03:11:29;;;;;;;19.85;14.05;;;;;;;16.56;95.50;100584.19;5045507;28;20076;-79
2021/09/25 03:13:56;;;;;;;21.75;13.15;;;;;;;16.57;95.37;100585.88;5064710;28;20079;-78
2021/09/25 03:16:23;;;;;;;16.98;12.20;;;;;;;16.58;95.62;100591.06;5047782;28;20069;-78
2021/09/25 03:18:51;;;;;;;16.63;11.65;;;;;;;16.57;95.42;100585.88;5064723;28;20078;-77
2021/09/25 03:21:18;;;;;;;15.00;11.45;;;;;;;16.54;95.55;100586.16;5060634;28;20480;-80
2021/09/25 03:23:45;;;;;;;17.67;12.10;;;;;;;16.58;95.91;100585.75;5061654;28;20059;-79
2021/09/25 03:26:12;;;;;;;19.00;11.38;;;;;;;16.50;96.08;100582.06;5040336;28;20119;-80
2021/09/25 03:28:40;;;;;;;19.73;13.43;;;;;;;16.59;95.25;100587.44;5058598;28;20063;-78
2021/09/25 03:31:07;;;;;;;16.23;12.05;;;;;;;16.55;95.72;100590.50;5064655;28;20453;-78
2021/09/25 03:33:34;;;;;;;17.10;12.20;;;;;;;16.60;95.50;100597.09;5059643;28;20653;-77
2021/09/25 03:36:02;;;;;;;19.20;12.88;;;;;;;16.71;95.02;100604.19;5059363;28;20053;-77
2021/09/25 03:38:29;;;;;;;23.15;13.43;;;;;;;16.69;94.50;100600.78;5068696;28;20171;-78
2021/09/25 03:40:57;;;;;;;17.83;12.27;;;;;;;16.69;94.82;100604.28;5042208;28;20268;-79
2021/09/25 03:43:25;;;;;;;12.90;10.63;;;;;;;16.68;95.03;100609.75;5068924;28;20475;-79
2021/09/25 03:45:52;;;;;;;18.75;12.93;;;;;;;16.56;95.38;100616.91;5057373;28;20060;-79
2021/09/25 03:48:19;;;;;;;18.42;12.13;;;;;;;16.57;95.61;100607.13;5058479;28;20054;-79
2021/09/25 03:50:47;;;;;;;14.13;12.25;;;;;;;16.65;94.94;100617.97;5061514;28;20121;-79
2021/09/25 03:53:14;;;;;;;14.18;10.82;;;;;;;16.73;94.86;100617.34;5063347;28;20420;-79
2021/09/25 03:55:41;;;;;;;18.52;11.10;;;;;;;16.71;94.64;100615.66;5039104;28;20048;-79
2021/09/25 03:58:08;;;;;;;15.68;11.52;;;;;;;16.74;94.48;100619.03;5067073;28;20151;-77
2021/09/25 04:00:42;;;;;;;19.23;11.57;;;;;;;16.71;94.80;100623.63;5057986;28;20072;-79
2021/09/25 04:03:10;;;;;;;15.27;11.27;;;;;;;16.75;94.52;100616.28;5061991;28;20612;-77
2021/09/25 04:05:41;;;;;;;14.75;11.52;;;;;;;16.78;94.62;100620.47;5052423;28;20082;-78
2021/09/25 04:08:08;;;;;;;15.93;11.38;;;;;;;16.74;94.64;100621.69;5070190;28;20144;-79
2021/09/25 04:10:35;;;;;;;15.77;11.70;;;;;;;16.70;95.13;100616.59;5051806;28;20143;-78
2021/09/25 04:13:02;;;;;;;15.70;12.00;;;;;;;16.75;95.79;100621.59;5063679;28;20227;-78
2021/09/25 04:15:30;;;;;;;16.70;12.23;;;;;;;16.58;97.06;100628.28;5065415;28;20064;-80
2021/09/25 04:17:57;;;;;;;18.45;13.82;;;;;;;16.44;100.00;100631.25;5054193;28;20131;-79
2021/09/25 04:20:24;;;;;;;16.38;14.40;;;;;;;16.12;100.00;100629.47;5058374;28;20215;-78
2021/09/25 04:22:52;;;;;;;24.35;15.43;;;;;;;16.13;100.00;100627.63;5069276;28;20074;-78
2021/09/25 04:25:19;;;;;;;19.00;14.60;;;;;;;16.10;100.00;100631.38;5057540;28;20064;-79
2021/09/25 04:27:51;;;;;;;25.33;17.50;;;;;;;15.77;100.00;100636.78;5066953;28;20136;-79
2021/09/25 04:30:19;;;;;;;24.60;17.50;;;;;;;15.64;100.00;100640.41;5077338;28;20168;-80
2021/09/25 04:32:46;;;;;;;26.13;18.38;;;;;;;15.54;100.00;100642.09;5077315;28;20080;-78
2021/09/25 04:35:14;;;;;;;25.58;18.98;;;;;;;15.40;100.00;100637.00;5078488;28;20104;-79
2021/09/25 04:37:41;;;;;;;30.23;19.23;;;;;;;15.35;100.00;100649.78;5071352;28;20068;-78
2021/09/25 04:40:09;;;;;;;24.15;18.13;;;;;;;15.35;100.00;100645.31;5063507;28;20088;-78
2021/09/25 04:42:36;;;;;;;24.52;19.25;;;;;;;15.23;100.00;100651.59;5068091;28;20088;-77
2021/09/25 04:45:04;;;;;;;23.13;18.83;;;;;;;15.35;100.00;100655.09;5065812;28;20160;-78
2021/09/25 04:47:31;;;;;;;26.15;20.02;;;;;;;15.29;100.00;100647.63;5060364;28;20139;-79
2021/09/25 04:50:02;;;;;;;21.65;18.48;;;;;;;15.35;100.00;100652.44;5039850;28;20055;-78
2021/09/25 04:52:29;;;;;;;25.73;20.73;;;;;;;15.43;100.00;100655.34;5062703;28;20147;-77
2021/09/25 04:54:57;;;;;;;27.85;19.63;;;;;;;15.49;100.00;100654.88;5059419;28;20121;-78
2021/09/25 04:57:24;;;;;;;27.15;20.17;;;;;;;15.45;100.00;100656.09;5070987;28;20131;-78
2021/09/25 04:59:51;;;;;;;23.77;18.75;;;;;;;15.39;100.00;100660.03;5065753;28;20076;-79
2021/09/25 05:02:18;;;;;;;27.35;20.55;;;;;;;15.30;100.00;100655.44;5056142;28;20155;-77
2021/09/25 05:04:46;;;;;;;31.65;19.25;;;;;;;15.36;100.00;100652.34;5057120;28;20049;-77
2021/09/25 05:07:13;;;;;;;27.23;19.80;;;;;;;15.39;100.00;100649.44;5045266;28;20130;-77
2021/09/25 05:09:43;;;;;;;28.77;18.13;;;;;;;15.49;100.00;100656.66;5060712;28;20131;-78
2021/09/25 05:12:10;;;;;;;28.27;19.98;;;;;;;15.43;100.00;100652.69;5055165;28;20092;-77
2021/09/25 05:14:40;;;;;;;29.92;18.63;;;;;;;15.42;100.00;100662.47;5064421;28;20071;-79
2021/09/25 05:17:08;;;;;;;23.95;17.90;;;;;;;15.47;100.00;100658.59;5071346;28;20045;-77
2021/09/25 05:19:36;;;;;;;27.30;19.17;;;;;;;15.51;100.00;100650.28;5058940;28;20135;-78
2021/09/25 05:22:04;;;;;;;25.30;18.58;;;;;;;15.49;100.00;100654.00;5054392;28;20052;-79
2021/09/25 05:24:31;;;;;;;33.72;18.75;;;;;;;15.52;100.00;100651.13;5025952;28;20061;-78
2021/09/25 05:26:58;;;;;;;24.48;17.52;;;;;;;15.69;100.00;100655.97;5045558;28;20081;-78
2021/09/25 05:29:25;;;;;;;22.33;17.52;;;;;;;15.88;100.00;100650.03;5063334;28;20511;-78
2021/09/25 05:31:53;;;;;;;21.55;15.75;;;;;;;16.01;100.00;100653.38;5022063;28;20056;-79
2021/09/25 05:34:20;;;;;;;20.48;15.52;;;;;;;16.11;100.00;100659.63;5062102;28;20143;-78
2021/09/25 05:36:47;;;;;;;20.30;15.48;;;;;;;16.13;100.00;100664.81;5068386;28;20176;-79
2021/09/25 05:39:15;;;;;;;20.00;15.13;;;;;;;16.17;100.00;100661.78;5056285;28;20127;-80
2021/09/25 05:41:42;;;;;;;19.95;14.65;;;;;;;16.22;100.00;100665.88;5049247;28;20048;-78
2021/09/25 05:44:09;;;;;;;20.45;15.18;;;;;;;16.17;100.00;100661.78;5052003;28;20123;-81
2021/09/25 05:46:37;;;;;;;20.48;15.25;;;;;;;16.16;100.00;100661.88;5066408;28;20200;-80
2021/09/25 05:49:04;;;;;;;17.10;14.25;;;;;;;16.23;100.00;100655.13;5065638;28;20041;-78
2021/09/25 05:51:31;;;;;;;44.22;18.20;;;;;;;16.31;100.00;100654.50;5058761;28;20049;-78
2021/09/25 05:53:59;;;;;;;41.92;16.50;;;;;;;16.30;100.00;100658.97;5045733;28;20047;-80
2021/09/25 05:56:26;;;;;;;30.67;15.18;;;;;;;16.32;100.00;100659.69;5051679;28;20056;-78
2021/09/25 05:58:53;;;;;;;58.33;17.02;;;;;;;16.46;100.00;100671.81;5061015;28;20053;-78
2021/09/25 06:01:20;;;;;;;27.27;14.02;;;;;;;16.38;100.00;100666.28;5058032;28;20052;-79
2021/09/25 06:03:48;;;;;;;19.60;13.02;;;;;;;16.45;100.00;100670.13;5056644;28;20056;-79
2021/09/25 06:06:15;;;;;;;34.20;15.07;;;;;;;16.58;100.00;100668.16;5061752;28;20102;-78
2021/09/25 06:08:43;;;;;;;27.20;12.85;;;;;;;16.77;100.00;100666.63;5065802;28;20052;-78
2021/09/25 06:11:10;;;;;;;40.50;15.27;;;;;;;17.02;100.00;100670.69;5060745;28;20514;-81
2021/09/25 06:13:38;;;;;;;24.00;12.10;;;;;;;17.13;100.00;100676.81;5055193;28;20135;-80
2021/09/25 06:16:05;;;;;;;22.45;12.50;;;;;;;17.12;100.00;100683.09;5061185;28;20092;-79
2021/09/25 06:18:32;;;;;;;63.75;16.30;;;;;;;17.12;100.00;100683.09;5044603;28;20144;-78
2021/09/25 06:21:00;;;;;;;32.72;13.30;;;;;;;17.12;100.00;100683.09;5062363;28;20044;-78
2021/09/25 06:23:27;;;;;;;20.30;12.82;;;;;;;17.01;100.00;100685.81;5058451;28;20048;-78
2021/09/25 06:25:55;;;;;;;17.60;11.32;;;;;;;17.23;100.00;100692.81;5056340;28;20056;-77
2021/09/25 06:28:22;;;;;;;15.15;11.25;;;;;;;17.39;100.00;100687.03;5064044;28;20698;-78
2021/09/25 06:30:49;;;;;;;30.30;12.70;;;;;;;17.31;100.00;100693.00;5041562;28;20052;-79
2021/09/25 06:33:17;;;;;;;20.02;10.45;;;;;;;17.98;97.10;100690.78;5049249;28;20139;-79
2021/09/25 06:35:46;;;;;;;22.25;11.88;;;;;;;17.86;95.76;100690.03;5059766;28;20147;-78
2021/09/25 06:38:13;;;;;;;22.00;10.52;;;;;;;17.95;95.75;100689.22;5048516;28;20064;-80
2021/09/25 06:40:41;;;;;;;13.73;9.70;;;;;;;17.90;95.06;100686.13;5060683;28;20087;-78
2021/09/25 06:43:08;;;;;;;19.90;11.32;;;;;;;17.82;96.40;100689.47;5040323;28;20132;-78
2021/09/25 06:45:38;;;;;;;16.10;10.55;;;;;;;17.74;96.65;100688.44;5062927;28;20045;-77
2021/09/25 06:48:07;;;;;;;16.88;10.82;;;;;;;17.61;97.94;100688.69;5058714;28;20041;-79
2021/09/25 06:50:34;;;;;;;11.93;9.02;;;;;;;17.72;97.83;100691.22;5037787;28;20075;-78
2021/09/25 06:53:02;;;;;;;17.35;12.05;;;;;;;17.85;96.85;100693.69;5046170;28;20044;-80
2021/09/25 06:55:29;;;;;;;18.77;11.10;;;;;;;17.68;98.49;100685.31;5047838;28;20064;-78
2021/09/25 06:57:56;;;;;;;19.50;10.65;;;;;;;18.04;96.31;100692.88;5067121;28;20115;-79
2021/09/25 07:00:24;;;;;;;17.55;11.15;;;;;;;18.05;95.56;100697.22;5054599;28;20052;-78
2021/09/25 07:02:51;;;;;;;25.70;11.73;;;;;;;17.96;96.40;100699.72;5053002;28;20159;-79
2021/09/25 07:05:18;;;;;;;16.73;10.85;;;;;;;17.90;96.24;100696.78;5030118;28;20341;-78
2021/09/25 07:07:46;;;;;;;24.17;10.35;;;;;;;17.80;97.30;100699.41;5062610;28;20089;-79
2021/09/25 07:10:14;;;;;;;14.50;10.70;;;;;;;18.05;96.14;100705.22;5059269;28;20325;-79
2021/09/25 07:12:42;;;;;;;17.40;10.25;;;;;;;18.13;95.36;100716.03;5040851;28;20087;-80
2021/09/25 07:15:10;;;;;;;28.27;11.73;;;;;;;18.11;94.78;100718.00;5030677;28;20055;-78
2021/09/25 07:17:38;;;;;;;21.95;12.52;;;;;;;17.82;96.35;100716.09;5046456;28;20117;-78
2021/09/25 07:20:07;;;;;;;16.75;10.50;;;;;;;17.88;96.12;100718.22;5056975;28;20063;-78
2021/09/25 07:22:35;;;;;;;18.75;12.02;;;;;;;17.66;97.36;100718.41;5041883;28;20052;-80
2021/09/25 07:25:03;;;;;;;26.08;10.27;;;;;;;18.08;95.80;100715.63;5056385;28;20051;-79
2021/09/25 07:27:30;;;;;;;18.45;10.32;;;;;;;18.55;92.02;100722.00;5023526;28;20135;-80
2021/09/25 07:29:57;;;;;;;13.75;10.50;;;;;;;19.07;88.96;100730.56;5056670;28;20136;-80
2021/09/25 07:32:24;;;;;;;13.93;9.40;;;;;;;19.64;84.99;100725.28;5064508;28;20531;-80
2021/09/25 07:34:52;;;;;;;13.07;8.75;;;;;;;21.22;77.76;100726.56;5040209;28;20072;-78
2021/09/25 07:37:19;;;;;;;14.55;9.40;;;;;;;22.37;70.95;100731.50;5053288;28;20036;-80
2021/09/25 07:39:46;;;;;;;14.13;8.20;;;;;;;22.21;70.12;100726.94;5056544;28;20424;-80
2021/09/25 07:42:13;;;;;;;11.50;8.50;;;;;;;21.37;73.06;100732.22;5053834;28;20139;-79
2021/09/25 07:44:41;;;;;;;12.95;8.73;;;;;;;20.78;76.18;100739.94;5037879;28;20462;-81
2021/09/25 07:47:08;;;;;;;15.50;9.57;;;;;;;19.80;80.94;100746.84;5049331;28;20051;-80
2021/09/25 07:49:36;;;;;;;16.58;10.82;;;;;;;19.27;84.48;100749.22;5059420;28;20155;-80
2021/09/25 07:52:03;;;;;;;16.48;10.13;;;;;;;18.94;86.82;100740.69;5043782;28;20411;-80
2021/09/25 07:54:30;;;;;;;14.18;10.70;;;;;;;19.02;86.10;100740.84;5052952;28;20585;-80
2021/09/25 07:56:58;;;;;;;20.77;10.48;;;;;;;18.86;87.43;100745.88;5045573;28;20127;-80
2021/09/25 07:59:25;;;;;;;17.38;10.57;;;;;;;19.02;86.45;100746.16;5035265;28;20045;-80
2021/09/25 08:01:52;;;;;;;22.45;10.13;;;;;;;19.03;87.44;100752.34;5047578;28;20052;-80
2021/09/25 08:04:20;;;;;;;20.23;11.20;;;;;;;18.97;87.16;100754.59;5031949;28;20140;-80
2021/09/25 08:06:47;;;;;;;15.95;10.38;;;;;;;18.78;88.27;100757.28;5062398;28;20087;-82
2021/09/25 08:09:14;;;;;;;19.38;10.40;;;;;;;18.79;87.96;100756.28;5050304;28;20041;-78
2021/09/25 08:11:41;;;;;;;11.25;8.43;;;;;;;18.98;86.82;100756.28;5032494;28;20488;-81
2021/09/25 08:14:09;;;;;;;15.93;10.65;;;;;;;19.18;85.63;100756.25;5042901;28;20091;-79
2021/09/25 08:16:36;;;;;;;15.25;9.85;;;;;;;19.08;85.95;100755.44;5061679;28;20086;-78
2021/09/25 08:19:03;;;;;;;12.55;9.65;;;;;;;19.33;85.35;100759.34;5058587;28;20082;-81
2021/09/25 08:21:31;;;;;;;13.48;10.35;;;;;;;19.25;85.53;100760.03;5022033;28;20451;-80
2021/09/25 08:23:58;;;;;;;12.88;10.20;;;;;;;18.78;88.61;100762.63;5060261;28;20055;-80
2021/09/25 08:26:27;;;;;;;11.68;8.90;;;;;;;18.97;87.42;100762.59;5055850;28;20432;-81
2021/09/25 08:28:54;;;;;;;15.18;9.95;;;;;;;19.22;86.21;100766.50;5060549;28;20056;-80
2021/09/25 08:31:21;;;;;;;17.58;11.15;;;;;;;19.17;85.56;100755.41;5063414;28;20500;-80
2021/09/25 08:33:49;;;;;;;13.48;9.35;;;;;;;19.41;84.69;100762.97;5039608;28;20356;-80
2021/09/25 08:36:16;;;;;;;18.30;10.23;;;;;;;19.23;85.15;100768.19;5054802;28;20067;-80
2021/09/25 08:39:04;;;;;;;21.20;10.90;;;;;;;19.08;86.62;100766.94;5041225;28;20032;-82
2021/09/25 08:41:32;;;;;;;13.32;10.45;;;;;;;19.38;85.38;100775.75;5056096;28;21026;-80
2021/09/25 08:43:59;;;;;;;15.65;10.60;;;;;;;19.35;85.95;100778.69;5045926;28;20155;-81
2021/09/25 08:46:27;;;;;;;15.10;9.88;;;;;;;19.40;85.06;100782.63;5058487;28;20057;-81
2021/09/25 08:48:55;;;;;;;15.38;10.40;;;;;;;19.35;85.23;100784.03;5042942;28;20061;-82
2021/09/25 08:51:22;;;;;;;15.52;10.48;;;;;;;19.02;87.36;100788.84;5027805;28;20076;-80
2021/09/25 08:53:49;;;;;;;11.60;8.88;;;;;;;19.08;86.73;100788.28;5042579;28;20131;-80
2021/09/25 08:56:17;;;;;;;15.27;10.38;;;;;;;18.84;88.66;100790.53;5037258;28;20086;-80
2021/09/25 08:58:47;;;;;;;16.90;11.38;;;;;;;18.72;89.21;100790.66;5058189;28;20140;-80
2021/09/25 09:01:23;;;;;;;19.10;11.90;;;;;;;18.46;91.21;100801.00;5059822;28;20499;-79
2021/09/25 09:03:52;;;;;;;19.35;12.48;;;;;;;18.35;92.18;100794.91;5042967;28;20084;-81
2021/09/25 09:06:35;;;;;;;16.02;12.60;;;;;;;18.35;92.55;100800.25;5029010;28;20057;-81
2021/09/25 09:09:07;;;;;;;15.77;12.15;;;;;;;18.53;92.08;100798.59;5062969;28;20067;-80
2021/09/25 09:11:43;;;;;;;18.08;13.27;;;;;;;18.86;90.21;100793.91;5058493;28;20041;-79
2021/09/25 09:14:15;;;;;;;17.70;13.27;;;;;;;18.93;90.14;100795.88;5044392;28;20040;-79
2021/09/25 09:16:54;;;;;;;18.60;13.18;;;;;;;18.54;91.56;100797.63;5068874;28;20057;-79
2021/09/25 09:19:22;;;;;;;18.83;13.48;;;;;;;18.63;91.68;100804.78;5044620;28;20144;-80
2021/09/25 09:21:50;;;;;;;17.73;13.10;;;;;;;18.65;91.63;100800.19;5033961;28;20056;-80
2021/09/25 09:24:17;;;;;;;21.48;12.57;;;;;;;18.77;91.63;100810.75;5038369;28;20095;-80
2021/09/25 09:26:45;;;;;;;14.77;11.98;;;;;;;18.47;93.54;100804.50;5070944;28;20116;-80
2021/09/25 09:29:17;;;;;;;15.07;12.40;;;;;;;18.63;92.98;100803.94;5043241;28;20099;-81
2021/09/25 09:31:44;;;;;;;13.88;11.43;;;;;;;19.01;90.31;100800.53;5081113;28;20079;-81
2021/09/25 09:34:12;;;;;;;15.82;12.38;;;;;;;18.84;91.45;100811.88;5047691;28;20401;-81
2021/09/25 09:36:41;;;;;;;16.73;11.82;;;;;;;19.02;90.29;100804.03;5041414;28;20083;-80
2021/09/25 09:39:15;;;;;;;15.95;10.80;;;;;;;19.07;90.12;100801.78;5073007;28;20101;-79
2021/09/25 09:41:46;;;;;;;14.80;12.43;;;;;;;18.69;92.54;100809.63;5050137;28;20044;-78
2021/09/25 09:44:19;;;;;;;18.45;11.73;;;;;;;18.91;91.65;100808.53;5043861;28;20394;-82
2021/09/25 09:46:49;;;;;;;19.52;11.27;;;;;;;18.57;95.20;100816.03;5038555;28;20563;-80
2021/09/25 09:49:20;;;;;;;18.20;13.15;;;;;;;18.23;99.91;100818.16;5056358;28;20111;-79
2021/09/25 09:51:52;;;;;;;18.45;14.75;;;;;;;17.88;100.00;100824.75;5061270;28;20037;-78
2021/09/25 09:54:30;;;;;;;25.02;16.10;;;;;;;17.67;100.00;100823.91;5061217;28;20110;-79
2021/09/25 09:57:10;;;;;;;17.92;14.73;;;;;;;17.76;100.00;100833.81;5054514;28;20143;-79
2021/09/25 09:59:39;;;;;;;26.38;16.20;;;;;;;17.76;100.00;100846.28;5053643;28;20048;-79
2021/09/25 10:02:07;;;;;;;17.55;15.30;;;;;;;17.83;100.00;100834.97;5029450;28;20087;-79
2021/09/25 10:04:36;;;;;;;20.25;15.27;;;;;;;17.91;100.00;100835.13;5054729;28;20198;-79
2021/09/25 10:07:04;;;;;;;19.83;17.85;;;;;;;17.78;100.00;100845.16;5057093;28;20083;-79
2021/09/25 10:09:34;;;;;;;20.90;18.48;;;;;;;17.83;100.00;100850.97;5049896;28;20046;-80
2021/09/25 10:12:05;;;;;;;25.73;20.05;;;;;;;17.63;100.00;100846.44;5058623;28;20159;-79
2021/09/25 10:14:36;;;;;;;22.60;20.25;;;;;;;17.69;100.00;100843.25;5057102;28;20072;-78
2021/09/25 10:17:06;;;;;;;28.92;20.67;;;;;;;17.54;100.00;100845.41;5066558;28;20036;-80
2021/09/25 10:19:37;;;;;;;23.20;20.77;;;;;;;17.41;100.00;100847.41;5064387;28;20140;-80
2021/09/25 10:22:20;;;;;;;21.95;19.83;;;;;;;17.38;100.00;100847.66;5066206;28;20083;-81
2021/09/25 10:24:54;;;;;;;24.33;20.50;;;;;;;17.54;100.00;100847.22;5031483;28;20386;-80
2021/09/25 10:27:45;;;;;;;22.17;19.42;;;;;;;17.69;100.00;100846.75;5043485;28;20048;-80
2021/09/25 10:30:13;;;;;;;22.88;20.63;;;;;;;17.51;100.00;100848.31;5063281;28;20729;-80
2021/09/25 10:32:48;;;;;;;23.88;20.17;;;;;;;18.14;100.00;100846.44;5030568;28;20122;-79
2021/09/25 10:35:17;;;;;;;;;;;;;;;18.64;100.00;100849.16;5061254;28;20131;-81
2021/09/25 10:37:46;;;;;;;22.27;18.27;;;;;;;19.02;100.00;100858.22;5050962;28;19986;-79
2021/09/25 10:40:38;;;;;;;19.33;17.23;;;;;;;19.43;100.00;100865.09;5028627;28;20067;-77
2021/09/25 10:43:15;;;;;;;17.38;15.50;;;;;;;19.90;98.42;100873.22;5064719;28;20396;-77
2021/09/25 10:45:43;;;;;;;21.17;16.30;;;;;;;20.34;94.38;100862.78;5048890;28;20143;-80
2021/09/25 10:48:19;;;;;;;17.20;15.32;;;;;;;20.83;90.19;100865.22;5058776;28;20052;-80
2021/09/25 10:50:58;;;;;;;15.35;12.82;;;;;;;21.22;88.93;100863.13;5039751;28;20131;-79
2021/09/25 10:53:37;;;;;;;16.65;13.52;;;;;;;21.54;85.86;100864.41;5057501;28;20152;-78
2021/09/25 10:56:06;;;;;;;15.50;12.82;;;;;;;21.71;84.92;100861.69;5060162;28;20162;-80
2021/09/25 10:58:37;;;;;;;15.73;12.82;;;;;;;21.78;83.90;100861.91;5059552;28;20172;-77
2021/09/25 11:01:20;;;;;;;14.02;11.90;;;;;;;22.10;80.85;100857.72;5061112;28;20051;-78
2021/09/25 11:03:51;;;;;;;21.08;10.93;;;;;;;22.19;80.70;100872.88;5055097;28;20430;-77
2021/09/25 11:06:30;;;;;;;11.75;10.00;;;;;;;21.98;82.05;100868.75;5041229;28;20375;-79
2021/09/25 11:09:04;;;;;;;14.98;11.40;;;;;;;22.00;80.89;100864.03;5064393;28;20094;-78
2021/09/25 11:11:34;;;;;;;12.63;10.82;;;;;;;22.13;79.31;100865.50;5018040;28;20411;-77
2021/09/25 11:14:05;;;;;;;11.10;9.18;;;;;;;22.07;79.58;100864.28;5068394;28;20079;-78